Time;durP1;ratioP1;P1;durP2;ratioP2;P2;SDS_P1;SDS_P2;PMS_P1;PMS_P2;Temp;Humidity;BMP_temperature;BMP_pressure;BME280_temperature;BME280_humidity;BME280_pressure;Samples;Min_cycle;Max_cycle;Signal;HPM_P1;HPM_P2
2022/01/31 00:00:57;;;;;;;75.40;9.23;;;4.50;99.90;;;;;;4941299;29;20266;-86
2022/01/31 00:03:23;;;;;;;76.53;10.80;;;4.40;99.90;;;;;;4942240;29;20172;-85
2022/01/31 00:05:49;;;;;;;78.87;12.60;;;4.40;99.90;;;;;;4940979;29;20464;-86
2022/01/31 00:08:20;;;;;;;83.40;11.60;;;4.30;99.90;;;;;;4942683;29;20177;-86
2022/01/31 00:10:50;;;;;;;77.47;12.07;;;4.30;99.90;;;;;;4941481;29;20445;-86
2022/01/31 00:13:44;;;;;;;84.90;16.05;;;4.20;99.90;;;;;;4940843;29;20204;-85
2022/01/31 00:16:07;;;;;;;74.40;11.68;;;4.20;99.90;;;;;;4941850;29;20223;-86
2022/01/31 00:18:33;;;;;;;74.07;14.00;;;4.20;99.90;;;;;;4940698;29;20545;-86
2022/01/31 00:20:58;;;;;;;76.43;11.47;;;4.20;99.90;;;;;;4942426;29;20173;-86
2022/01/31 00:23:24;;;;;;;77.50;13.03;;;4.20;99.90;;;;;;4942027;29;20175;-86
2022/01/31 00:25:50;;;;;;;75.30;15.03;;;4.20;99.90;;;;;;4941164;29;20534;-86
2022/01/31 00:28:16;;;;;;;77.50;18.83;;;4.20;99.90;;;;;;4941263;29;20172;-86
2022/01/31 00:30:41;;;;;;;72.90;15.43;;;4.20;99.90;;;;;;4941217;29;20179;-86
2022/01/31 00:33:08;;;;;;;76.40;13.70;;;4.10;99.90;;;;;;4940733;29;20193;-86
2022/01/31 00:35:34;;;;;;;79.28;12.00;;;4.10;99.90;;;;;;4942036;29;20480;-86
2022/01/31 00:37:59;;;;;;;74.00;13.87;;;4.00;99.90;;;;;;4942475;29;20164;-86
2022/01/31 00:40:25;;;;;;;72.77;12.03;;;4.00;99.90;;;;;;4941510;29;20165;-86
2022/01/31 00:42:53;;;;;;;75.50;13.97;;;4.00;99.90;;;;;;4941006;29;20183;-86
2022/01/31 00:45:27;;;;;;;73.50;11.90;;;4.00;99.90;;;;;;4940578;29;20443;-86
2022/01/31 00:48:05;;;;;;;75.20;11.88;;;4.00;99.90;;;;;;4941367;29;20149;-86
2022/01/31 00:50:41;;;;;;;81.07;12.65;;;4.00;99.90;;;;;;4940698;29;20200;-86
2022/01/31 00:53:07;;;;;;;72.57;11.27;;;4.10;99.90;;;;;;4941590;29;20195;-86
2022/01/31 00:55:36;;;;;;;75.10;11.95;;;4.20;99.90;;;;;;4942549;29;20543;-85
2022/01/31 00:58:01;;;;;;;75.57;13.02;;;4.20;99.90;;;;;;4943270;29;20247;-85
2022/01/31 01:00:27;;;;;;;76.00;13.70;;;4.20;99.90;;;;;;4941994;29;20199;-85
2022/01/31 01:02:53;;;;;;;78.20;14.60;;;4.20;99.90;;;;;;4943700;29;20176;-85
2022/01/31 01:05:18;;;;;;;72.67;12.47;;;4.30;99.90;;;;;;4942854;29;20596;-85
2022/01/31 01:07:45;;;;;;;71.10;11.10;;;4.30;99.90;;;;;;4941233;29;20180;-84
2022/01/31 01:10:14;;;;;;;73.03;11.75;;;4.40;99.90;;;;;;4942902;29;20206;-85
2022/01/31 01:12:40;;;;;;;76.80;11.30;;;4.40;99.90;;;;;;4942989;29;20530;-85
2022/01/31 01:15:06;;;;;;;72.50;9.37;;;4.50;99.90;;;;;;4941302;29;20261;-86
2022/01/31 01:17:32;;;;;;;72.25;10.55;;;4.70;99.90;;;;;;4941865;29;20400;-86
2022/01/31 01:19:57;;;;;;;73.27;10.57;;;4.80;99.90;;;;;;4942364;29;20692;-85
2022/01/31 01:22:23;;;;;;;73.57;10.30;;;4.90;99.90;;;;;;4942208;29;20200;-85
2022/01/31 01:24:49;;;;;;;77.73;9.93;;;4.90;99.90;;;;;;4942100;29;20434;-86
2022/01/31 01:27:19;;;;;;;72.37;12.33;;;4.90;99.90;;;;;;4940992;29;20175;-85
2022/01/31 01:29:46;;;;;;;73.07;11.15;;;5.00;99.90;;;;;;4941769;29;20476;-86
2022/01/31 01:32:12;;;;;;;76.95;11.38;;;5.00;99.90;;;;;;4941501;29;20640;-86
2022/01/31 01:34:40;;;;;;;82.10;11.90;;;5.00;99.90;;;;;;4940407;29;20625;-86
2022/01/31 01:37:06;;;;;;;73.63;9.70;;;5.00;99.90;;;;;;4941126;29;20180;-86
2022/01/31 01:39:32;;;;;;;75.47;10.55;;;5.10;99.90;;;;;;4941154;29;20199;-86
2022/01/31 01:42:01;;;;;;;73.47;10.77;;;5.10;99.90;;;;;;4940784;29;20160;-86
2022/01/31 01:44:50;;;;;;;76.57;15.63;;;5.20;99.90;;;;;;4940293;29;20189;-86
2022/01/31 01:47:21;;;;;;;79.07;17.13;;;5.20;99.90;;;;;;4940113;29;20276;-86
2022/01/31 01:53:49;;;;;;;74.15;11.07;;;5.20;99.90;;;;;;4914782;29;20779;-87
2022/01/31 02:00:18;;;;;;;75.03;12.48;;;5.10;99.90;;;;;;4840638;29;20192;-87
2022/01/31 02:06:24;;;;;;;74.43;10.70;;;5.20;99.90;;;;;;4877066;29;20190;-87
2022/01/31 02:09:20;;;;;;;71.90;10.60;;;5.20;99.90;;;;;;4880818;29;20162;-87
2022/01/31 02:12:30;;;;;;;;;;;;;;;;;;;;;
2022/01/31 02:15:24;;;;;;;75.07;17.75;;;5.20;99.90;;;;;;4916486;29;20221;-86
2022/01/31 02:18:47;;;;;;;78.35;13.15;;;5.20;99.90;;;;;;4920315;29;20229;-87
2022/01/31 02:21:38;;;;;;;74.13;11.65;;;5.30;99.90;;;;;;4898785;29;20181;-87
2022/01/31 02:24:28;;;;;;;74.93;12.93;;;5.30;99.90;;;;;;4876600;29;20185;-86
2022/01/31 02:28:06;;;;;;;77.70;12.93;;;5.30;99.90;;;;;;4883582;29;20337;-87
2022/01/31 02:30:39;;;;;;;73.60;12.35;;;5.30;99.90;;;;;;4791990;29;20221;-86
2022/01/31 02:33:20;;;;;;;79.05;11.02;;;5.40;99.90;;;;;;4796404;29;20209;-87
2022/01/31 02:36:25;;;;;;;;;;;;;;;;;;;;;
2022/01/31 02:39:18;;;;;;;75.30;9.48;;;5.50;99.90;;;;;;4833865;29;20188;-87
2022/01/31 02:42:24;;;;;;;76.47;11.50;;;5.50;99.90;;;;;;4920126;29;20181;-87
2022/01/31 02:45:26;;;;;;;71.10;11.00;;;5.60;99.90;;;;;;4880395;29;20231;-87
2022/01/31 02:48:42;;;;;;;71.38;10.68;;;5.70;99.90;;;;;;4883518;29;20700;-88
2022/01/31 02:51:57;;;;;;;77.15;10.00;;;5.70;99.90;;;;;;4845688;29;20202;-87
2022/01/31 02:59:32;;;;;;;89.53;55.92;;;5.70;99.90;;;;;;4936619;29;20203;-89
2022/01/31 03:02:01;;;;;;;85.72;43.97;;;5.70;99.90;;;;;;4937095;29;20172;-89
2022/01/31 03:04:38;;;;;;;80.57;37.25;;;5.70;99.90;;;;;;4938046;29;20673;-89
2022/01/31 03:07:10;;;;;;;84.45;43.58;;;5.60;99.90;;;;;;4938263;29;20148;-89
2022/01/31 03:09:41;;;;;;;105.95;83.40;;;5.60;99.90;;;;;;4938613;29;20252;-91
2022/01/31 03:12:10;;;;;;;166.40;152.50;;;5.50;99.90;;;;;;4939364;29;20164;-91
2022/01/31 03:21:18;;;;;;;149.60;136.45;;;5.50;99.90;;;;;;4940730;29;20216;-91
2022/01/31 03:29:21;;;;;;;149.63;137.38;;;5.30;99.90;;;;;;5342980;23;20569;-91
2022/01/31 03:36:03;;;;;;;104.28;93.43;;;5.20;99.90;;;;;;4880208;29;20691;-92
2022/01/31 03:39:02;;;;;;;112.00;100.70;;;5.10;99.90;;;;;;4842194;29;20266;-89
2022/01/31 03:42:01;;;;;;;97.85;86.25;;;5.10;99.90;;;;;;4823885;29;20184;-91
2022/01/31 03:44:51;;;;;;;107.20;95.90;;;5.10;99.90;;;;;;4808644;29;20209;-90
2022/01/31 03:48:12;;;;;;;93.38;80.05;;;5.10;99.90;;;;;;4834128;29;20286;-90
2022/01/31 03:51:09;;;;;;;88.80;64.95;;;5.10;99.90;;;;;;4841259;29;20183;-90
2022/01/31 03:57:09;;;;;;;128.40;116.53;;;5.00;99.90;;;;;;4945042;23;20220;-90
2022/01/31 03:59:55;;;;;;;105.55;94.90;;;5.00;99.90;;;;;;4936844;29;20180;-91
2022/01/31 04:02:21;;;;;;;138.43;126.13;;;5.10;99.90;;;;;;4936875;29;20194;-89
2022/01/31 04:04:49;;;;;;;111.30;100.47;;;5.10;99.90;;;;;;4936551;29;20200;-88
2022/01/31 04:07:18;;;;;;;127.10;115.72;;;5.00;99.90;;;;;;4937397;29;20161;-90
2022/01/31 04:10:15;;;;;;;145.32;133.00;;;5.00;99.90;;;;;;4937157;29;20165;-90
2022/01/31 04:12:40;;;;;;;100.72;89.90;;;5.00;99.90;;;;;;4933712;29;20556;-88
2022/01/31 04:15:12;;;;;;;186.97;173.17;;;5.00;99.90;;;;;;4937472;29;20267;-90
2022/01/31 04:17:39;;;;;;;121.85;110.72;;;5.00;99.90;;;;;;4937350;29;20201;-88
2022/01/31 04:20:07;;;;;;;102.75;92.05;;;5.00;99.90;;;;;;4937019;29;20219;-88
2022/01/31 04:22:52;;;;;;;;;;;;;;;;;;;;;
2022/01/31 04:25:29;;;;;;;123.65;112.38;;;5.00;99.90;;;;;;4936895;29;20190;-88
2022/01/31 04:31:14;;;;;;;143.18;130.85;;;4.90;99.90;;;;;;4916420;29;20180;-90
2022/01/31 04:33:47;;;;;;;132.80;120.72;;;4.90;99.90;;;;;;4936531;29;20212;-89
2022/01/31 04:36:19;;;;;;;122.38;110.65;;;5.00;99.90;;;;;;4935234;29;20215;-88
2022/01/31 04:38:49;;;;;;;95.78;85.38;;;4.90;99.90;;;;;;4935675;29;20165;-89
2022/01/31 04:41:15;;;;;;;104.07;92.53;;;4.90;99.90;;;;;;4935576;29;20172;-89
2022/01/31 04:43:42;;;;;;;132.88;120.85;;;4.90;99.90;;;;;;4935392;29;20199;-90
2022/01/31 04:46:11;;;;;;;108.63;97.57;;;4.90;99.90;;;;;;4934931;29;20247;-88
2022/01/31 04:48:43;;;;;;;123.03;110.93;;;5.00;99.90;;;;;;4936480;29;20580;-88
2022/01/31 04:51:09;;;;;;;117.50;105.63;;;5.00;99.90;;;;;;4935496;29;20195;-88
2022/01/31 04:53:38;;;;;;;116.50;105.47;;;5.00;99.90;;;;;;4935204;29;20196;-87
2022/01/31 04:56:05;;;;;;;126.25;114.38;;;5.00;99.90;;;;;;4934875;29;20215;-88
2022/01/31 04:58:41;;;;;;;163.27;150.25;;;5.00;99.90;;;;;;4935552;29;20179;-87
2022/01/31 05:01:13;;;;;;;109.90;98.82;;;5.10;99.90;;;;;;4935422;29;20260;-87
2022/01/31 05:03:48;;;;;;;;;;;;;;;;;;;;;
2022/01/31 05:06:25;;;;;;;116.20;105.22;;;5.30;99.90;;;;;;4937177;29;20179;-87
2022/01/31 05:08:56;;;;;;;143.48;130.90;;;5.40;99.90;;;;;;4935816;29;20648;-87
2022/01/31 05:11:28;;;;;;;109.78;98.43;;;5.50;99.90;;;;;;4935908;29;20227;-87
2022/01/31 05:13:57;;;;;;;147.80;134.80;;;5.50;99.90;;;;;;4937226;29;20188;-87
2022/01/31 05:16:25;;;;;;;124.75;112.55;;;5.60;99.90;;;;;;4937197;29;20268;-87
2022/01/31 05:18:51;;;;;;;242.15;226.50;;;5.60;99.90;;;;;;4937003;29;20581;-86
2022/01/31 05:21:20;;;;;;;129.30;117.47;;;5.70;99.90;;;;;;4935768;29;20176;-87
2022/01/31 05:23:49;;;;;;;139.55;126.97;;;5.70;99.90;;;;;;4936488;29;20652;-87
2022/01/31 05:26:18;;;;;;;381.02;354.88;;;5.70;99.90;;;;;;4936494;29;20197;-86
2022/01/31 05:28:44;;;;;;;168.15;154.48;;;5.80;99.90;;;;;;4936593;29;20204;-87
2022/01/31 05:31:09;;;;;;;129.13;116.68;;;5.80;99.90;;;;;;4935264;29;20176;-87
2022/01/31 05:33:38;;;;;;;117.63;105.83;;;5.80;99.90;;;;;;4934802;29;20271;-87
2022/01/31 05:36:09;;;;;;;314.35;294.05;;;5.80;99.90;;;;;;4935912;29;20189;-87
2022/01/31 05:38:37;;;;;;;195.73;181.18;;;5.80;99.90;;;;;;4934869;29;20168;-87
2022/01/31 05:41:08;;;;;;;109.68;98.45;;;5.80;99.90;;;;;;4936484;29;20172;-87
2022/01/31 05:43:46;;;;;;;98.70;84.40;;;5.80;99.90;;;;;;4938711;29;20559;-88
2022/01/31 05:46:14;;;;;;;174.50;160.70;;;5.80;99.90;;;;;;4940131;29;20243;-87
2022/01/31 05:48:40;;;;;;;117.50;105.75;;;5.80;99.90;;;;;;4939706;29;20172;-87
2022/01/31 05:51:37;;;;;;;107.20;93.30;;;5.80;99.90;;;;;;4938963;29;20226;-88
2022/01/31 05:54:06;;;;;;;106.38;94.75;;;5.80;99.90;;;;;;4936683;29;20507;-88
2022/01/31 05:56:32;;;;;;;111.05;100.05;;;5.80;99.90;;;;;;4936713;29;20672;-87
2022/01/31 05:59:04;;;;;;;116.33;103.97;;;5.90;99.90;;;;;;4938416;29;20191;-88
2022/01/31 06:01:39;;;;;;;196.63;180.57;;;5.90;99.90;;;;;;4938616;29;20167;-88
2022/01/31 06:04:23;;;;;;;97.63;85.47;;;5.90;99.90;;;;;;4938867;29;20227;-88
2022/01/31 06:06:56;;;;;;;103.13;83.47;;;5.90;99.90;;;;;;4938597;29;20184;-88
2022/01/31 06:09:36;;;;;;;103.53;91.43;;;5.90;99.90;;;;;;4937048;29;20173;-88
2022/01/31 06:12:05;;;;;;;114.45;102.60;;;6.00;99.90;;;;;;4938527;29;20164;-88
2022/01/31 06:14:42;;;;;;;108.50;96.63;;;5.90;99.90;;;;;;4938150;29;20229;-88
2022/01/31 06:17:11;;;;;;;150.15;137.30;;;6.00;99.90;;;;;;4938516;29;20168;-87
2022/01/31 06:19:37;;;;;;;100.22;89.57;;;6.00;99.90;;;;;;4938199;29;20184;-88
2022/01/31 06:22:18;;;;;;;105.20;89.30;;;6.00;99.90;;;;;;4936711;29;20642;-88
2022/01/31 06:27:58;;;;;;;159.43;145.98;;;6.00;99.90;;;;;;4909833;29;20530;-87
2022/01/31 06:30:25;;;;;;;100.65;83.90;;;6.00;99.90;;;;;;4942385;29;20185;-87
2022/01/31 06:33:05;;;;;;;120.32;108.05;;;6.00;99.90;;;;;;4937812;29;20228;-88
2022/01/31 06:35:31;;;;;;;119.85;107.38;;;6.00;99.90;;;;;;4936577;29;20283;-87
2022/01/31 06:37:57;;;;;;;219.50;203.73;;;6.00;99.90;;;;;;4937721;29;20192;-87
2022/01/31 06:40:22;;;;;;;176.40;162.23;;;6.00;99.90;;;;;;4936515;29;20561;-87
2022/01/31 06:43:01;;;;;;;102.43;89.40;;;6.10;99.90;;;;;;4936839;29;20418;-88
2022/01/31 06:45:33;;;;;;;192.43;178.02;;;6.10;99.90;;;;;;4938196;29;20437;-88
2022/01/31 06:48:08;;;;;;;125.40;113.60;;;6.10;99.90;;;;;;4938437;29;20156;-88
2022/01/31 06:50:34;;;;;;;109.35;97.95;;;6.10;99.90;;;;;;4937417;29;20256;-88
2022/01/31 06:53:01;;;;;;;101.03;85.30;;;6.10;99.90;;;;;;4935419;29;20224;-88
2022/01/31 06:55:40;;;;;;;90.67;66.00;;;6.10;99.90;;;;;;4751299;23;5478996;-88
2022/01/31 06:58:12;;;;;;;87.50;63.63;;;6.10;99.90;;;;;;4918827;29;20172;-87
2022/01/31 07:00:42;;;;;;;101.93;78.85;;;6.10;99.90;;;;;;4919608;29;20531;-87
2022/01/31 07:03:10;;;;;;;138.85;125.20;;;6.00;99.90;;;;;;4920250;29;20246;-86
2022/01/31 07:06:08;;;;;;;95.93;68.05;;;6.10;99.90;;;;;;4920493;29;20177;-87
2022/01/31 07:08:37;;;;;;;94.75;57.63;;;6.10;99.90;;;;;;4918501;29;20641;-86
2022/01/31 07:11:03;;;;;;;84.00;47.33;;;6.10;99.90;;;;;;4919248;29;20177;-87
2022/01/31 07:16:08;;;;;;;83.95;50.30;;;6.10;99.90;;;;;;4921984;29;20428;-87
2022/01/31 07:18:37;;;;;;;91.80;62.67;;;6.00;99.90;;;;;;4918699;29;20256;-87
2022/01/31 07:25:20;;;;;;;110.13;96.32;;;5.90;99.90;;;;;;4916938;29;20592;-86
2022/01/31 07:28:26;;;;;;;89.10;61.03;;;5.90;99.90;;;;;;4918158;29;20553;-87
2022/01/31 07:30:56;;;;;;;87.72;64.93;;;5.80;99.90;;;;;;4918308;29;20180;-88
2022/01/31 07:33:28;;;;;;;102.50;87.63;;;5.70;99.90;;;;;;4917338;29;20233;-88
2022/01/31 07:35:54;;;;;;;100.95;84.55;;;5.70;99.90;;;;;;4917570;29;20193;-88
2022/01/31 07:38:26;;;;;;;107.20;90.77;;;5.70;99.90;;;;;;4919511;29;20187;-88
2022/01/31 07:41:32;;;;;;;180.75;166.55;;;5.70;99.90;;;;;;4919726;29;20446;-88
2022/01/31 07:43:59;;;;;;;179.38;165.45;;;5.60;99.90;;;;;;4918731;29;20549;-88
2022/01/31 07:46:25;;;;;;;158.05;144.23;;;5.50;99.90;;;;;;4919720;29;20661;-88
2022/01/31 07:52:13;;;;;;;238.02;221.48;;;5.50;99.90;;;;;;4937830;29;20242;-86
2022/01/31 07:55:25;;;;;;;128.88;116.90;;;5.40;99.90;;;;;;4937139;29;20211;-86
2022/01/31 07:57:35;;;;;;;102.40;88.63;;;5.40;99.90;;;;;;4931302;29;20236;-86
2022/01/31 08:00:19;;;;;;;145.70;132.52;;;5.40;99.90;;;;;;4937320;29;20232;-86
2022/01/31 08:02:53;;;;;;;96.72;86.25;;;5.40;99.90;;;;;;4937391;29;20654;-86
2022/01/31 08:05:30;;;;;;;96.20;85.75;;;5.40;99.90;;;;;;4952543;23;20220;-86
2022/01/31 08:08:12;;;;;;;146.80;133.60;;;5.40;99.90;;;;;;4938790;29;20168;-86
2022/01/31 08:10:52;;;;;;;97.15;75.95;;;5.40;99.90;;;;;;4954211;29;20176;-85
2022/01/31 08:13:59;;;;;;;136.20;123.47;;;5.40;99.90;;;;;;4938623;29;20192;-86
2022/01/31 08:16:43;;;;;;;94.25;72.63;;;5.50;99.90;;;;;;4938081;29;20206;-85
2022/01/31 08:19:09;;;;;;;182.50;167.57;;;5.50;99.90;;;;;;4941823;29;20211;-85
2022/01/31 08:43:18;;;;;;;95.20;67.72;;;5.60;99.90;;;;;;4809280;29;20536;-86
2022/01/31 08:46:28;;;;;;;92.75;60.00;;;5.70;99.90;;;;;;4853664;29;20207;-87
2022/01/31 08:52:55;;;;;;;243.63;224.82;;;5.60;99.90;;;;;;4925864;29;20211;-86
2022/01/31 08:59:50;;;;;;;138.38;125.78;;;5.60;99.90;;;;;;4938192;29;20184;-86
2022/01/31 09:02:49;;;;;;;96.10;72.80;;;5.60;99.90;;;;;;4937741;29;20190;-86
2022/01/31 09:05:21;;;;;;;98.90;86.20;;;5.60;99.90;;;;;;4922993;29;20203;-85
2022/01/31 09:07:57;;;;;;;159.57;146.02;;;5.60;99.90;;;;;;4924227;29;20370;-86
2022/01/31 09:10:23;;;;;;;182.55;167.68;;;5.60;99.90;;;;;;4936621;29;20735;-85
2022/01/31 09:13:24;;;;;;;;;;;;;;;;;;;;;
2022/01/31 09:16:22;;;;;;;135.50;122.32;;;5.50;99.90;;;;;;4938245;29;20212;-86
2022/01/31 09:22:29;;;;;;;88.28;58.03;;;5.50;99.90;;;;;;4880879;29;20182;-85
2022/01/31 09:25:34;;;;;;;143.55;130.82;;;5.50;99.90;;;;;;4879959;29;20273;-85
2022/01/31 09:29:07;;;;;;;110.38;98.95;;;5.50;99.90;;;;;;4938467;29;20240;-86
2022/01/31 09:32:20;;;;;;;;;;;;;;;;;;;;;
2022/01/31 09:35:44;;;;;;;;;;;;;;;;;;;;;
2022/01/31 09:38:42;;;;;;;;;;;;;;;;;;;;;
2022/01/31 09:41:34;;;;;;;179.13;164.07;;;5.40;99.90;;;;;;4934240;29;20637;-86
2022/01/31 09:50:20;;;;;;;122.32;110.65;;;5.50;99.90;;;;;;4936643;29;20321;-85
2022/01/31 09:52:54;;;;;;;128.65;116.20;;;5.40;99.90;;;;;;4934498;29;20239;-85
2022/01/31 09:58:29;;;;;;;94.50;82.28;;;5.40;99.90;;;;;;4937322;29;20247;-85
2022/01/31 10:01:08;;;;;;;109.30;98.00;;;5.40;99.90;;;;;;4937935;29;20510;-86
2022/01/31 10:04:02;;;;;;;170.38;155.00;;;5.40;99.90;;;;;;4937063;29;20172;-85
2022/01/31 10:06:40;;;;;;;201.10;184.48;;;5.40;99.90;;;;;;4935713;29;20193;-86
2022/01/31 10:09:43;;;;;;;198.52;183.02;;;5.40;99.90;;;;;;4936791;29;20176;-85
2022/01/31 10:18:45;;;;;;;98.60;69.50;;;5.40;99.90;;;;;;4937357;29;20307;-86
2022/01/31 10:21:53;;;;;;;118.95;107.72;;;5.40;99.90;;;;;;4937736;29;20191;-86
2022/01/31 10:32:33;;;;;;;174.43;159.93;;;5.30;99.90;;;;;;4921634;29;20205;-85
2022/01/31 10:35:47;;;;;;;101.13;80.47;;;5.30;99.90;;;;;;4920694;29;20216;-85
2022/01/31 10:38:34;;;;;;;92.57;61.72;;;5.30;99.90;;;;;;4916327;29;20585;-84
2022/01/31 10:54:05;;;;;;;105.20;92.88;;;5.20;99.90;;;;;;4920750;29;20188;-86
2022/01/31 10:56:54;;;;;;;357.55;331.17;;;5.20;99.90;;;;;;4918187;29;20180;-86
2022/01/31 11:03:26;;;;;;;139.88;127.38;;;5.20;99.90;;;;;;4920375;29;20205;-85
2022/01/31 11:09:27;;;;;;;280.90;259.73;;;5.30;99.90;;;;;;4927897;29;20648;-86
2022/01/31 11:11:53;;;;;;;155.23;141.18;;;5.30;99.90;;;;;;4911851;29;20669;-86
2022/01/31 11:14:53;;;;;;;;;;;;;;;;;;;;;
2022/01/31 11:17:52;;;;;;;205.43;188.88;;;5.30;99.90;;;;;;4938896;29;20173;-86
2022/01/31 11:20:54;;;;;;;244.90;224.52;;;5.30;99.90;;;;;;4924135;29;20573;-85
2022/01/31 11:23:54;;;;;;;175.23;160.90;;;5.30;99.90;;;;;;4937088;29;20188;-86
2022/01/31 11:26:53;;;;;;;259.10;241.60;;;5.30;99.90;;;;;;4938341;29;20200;-85
2022/01/31 11:36:03;;;;;;;254.27;234.45;;;5.30;99.90;;;;;;4938478;29;20210;-86
2022/01/31 11:42:20;;;;;;;204.43;188.77;;;5.30;99.90;;;;;;4936321;29;20176;-86
2022/01/31 11:52:41;;;;;;;;;;;;;;;;;;;;;
2022/01/31 11:55:53;;;;;;;94.60;75.80;;;5.40;99.90;;;;;;4892860;29;20736;-86
2022/01/31 11:58:59;;;;;;;160.85;147.27;;;5.50;99.90;;;;;;4833286;29;20249;-85
2022/01/31 12:05:40;;;;;;;98.28;69.95;;;5.50;99.90;;;;;;4742167;30;20229;-85
2022/01/31 12:08:17;;;;;;;293.02;272.33;;;5.50;99.90;;;;;;4907007;29;20180;-86
2022/01/31 12:11:17;;;;;;;390.73;360.58;;;5.50;99.90;;;;;;4937198;29;20576;-85
2022/01/31 12:19:49;;;;;;;97.63;81.90;;;5.40;99.90;;;;;;4939393;29;20152;-86
2022/01/31 12:23:15;;;;;;;266.85;247.05;;;5.50;99.90;;;;;;4939269;29;20589;-87
2022/01/31 12:25:45;;;;;;;167.63;151.60;;;5.40;99.90;;;;;;4937895;29;20200;-86
2022/01/31 12:28:40;;;;;;;150.52;136.20;;;5.40;99.90;;;;;;4938646;29;20187;-86
2022/01/31 12:31:32;;;;;;;93.18;66.93;;;5.50;99.90;;;;;;4938702;29;20181;-86
2022/01/31 12:34:21;;;;;;;163.43;148.80;;;5.50;99.90;;;;;;4938084;29;20192;-86
2022/01/31 12:36:56;;;;;;;132.23;118.75;;;5.50;99.90;;;;;;4938225;29;20637;-86
2022/01/31 12:39:35;;;;;;;188.45;172.07;;;5.50;99.90;;;;;;4939401;29;20176;-86
2022/01/31 12:42:52;;;;;;;123.93;108.97;;;5.50;99.90;;;;;;4938697;29;20161;-86
2022/01/31 12:45:32;;;;;;;125.03;111.82;;;5.50;99.90;;;;;;4931042;29;20209;-86
2022/01/31 12:48:10;;;;;;;94.15;57.35;;;5.40;99.90;;;;;;4938413;29;20157;-87
2022/01/31 12:50:45;;;;;;;101.65;82.15;;;5.40;99.90;;;;;;4936210;29;20559;-87
2022/01/31 12:57:43;;;;;;;97.05;75.40;;;5.40;99.90;;;;;;4988946;23;20239;-87
2022/01/31 13:00:09;;;;;;;148.43;134.13;;;5.40;99.90;;;;;;4932357;29;20204;-86
2022/01/31 13:02:58;;;;;;;119.53;93.07;;;5.40;99.90;;;;;;4936662;29;20203;-86
2022/01/31 13:05:37;;;;;;;87.25;59.10;;;5.40;99.90;;;;;;4937141;29;20275;-87
2022/01/31 13:08:24;;;;;;;139.05;126.53;;;5.40;99.90;;;;;;4936372;29;20176;-88
2022/01/31 13:11:12;;;;;;;99.20;64.22;;;5.40;99.90;;;;;;4935740;29;20177;-86
2022/01/31 13:14:10;;;;;;;90.93;63.47;;;5.40;99.90;;;;;;4936231;29;20223;-86
2022/01/31 13:20:58;;;;;;;94.53;54.78;;;5.40;99.90;;;;;;4934459;29;20171;-87
2022/01/31 13:27:32;;;;;;;162.45;148.98;;;5.40;99.90;;;;;;4937670;29;20179;-85
2022/01/31 13:29:58;;;;;;;252.70;233.70;;;5.40;99.90;;;;;;4929948;29;20180;-87
2022/01/31 13:32:40;;;;;;;109.47;97.63;;;5.40;99.90;;;;;;4936641;29;20530;-86
2022/01/31 13:35:12;;;;;;;234.57;217.13;;;5.40;99.90;;;;;;4968868;23;20484;-86
2022/01/31 13:37:43;;;;;;;149.73;136.77;;;5.40;99.90;;;;;;4935409;29;20181;-86
2022/01/31 13:40:24;;;;;;;100.00;85.18;;;5.40;99.90;;;;;;4935372;29;20173;-86
2022/01/31 13:43:01;;;;;;;96.70;85.28;;;5.40;99.90;;;;;;4936132;29;20513;-86
2022/01/31 13:46:16;;;;;;;103.75;88.13;;;5.40;99.90;;;;;;4935358;29;20187;-87
2022/01/31 13:51:42;;;;;;;150.73;137.43;;;5.40;99.90;;;;;;4936351;29;20256;-88
2022/01/31 13:54:18;;;;;;;113.60;100.78;;;5.30;99.90;;;;;;4935872;29;20243;-87
2022/01/31 13:57:11;;;;;;;97.68;67.10;;;5.30;99.90;;;;;;4935746;29;20191;-88
2022/01/31 13:59:42;;;;;;;100.75;83.07;;;5.30;99.90;;;;;;4934691;29;20190;-89
2022/01/31 14:02:13;;;;;;;110.43;98.65;;;5.30;99.90;;;;;;4936664;29;20149;-88
2022/01/31 14:04:52;;;;;;;107.03;88.05;;;5.40;99.90;;;;;;4938747;29;20223;-88
2022/01/31 14:10:43;;;;;;;284.63;263.50;;;5.30;99.90;;;;;;4910223;29;20191;-88
2022/01/31 14:16:48;;;;;;;119.75;99.63;;;5.30;99.90;;;;;;4939375;29;20688;-88
2022/01/31 14:19:17;;;;;;;94.00;69.68;;;5.30;99.90;;;;;;4938278;29;20184;-88
2022/01/31 14:22:17;;;;;;;141.40;127.70;;;5.30;99.90;;;;;;4938030;29;20259;-88
2022/01/31 14:24:58;;;;;;;337.83;314.38;;;5.30;99.90;;;;;;4938561;29;20327;-87
2022/01/31 14:27:26;;;;;;;279.65;260.30;;;5.30;99.90;;;;;;4939229;29;20548;-88
2022/01/31 14:29:58;;;;;;;131.98;119.47;;;5.30;99.90;;;;;;4939045;29;20173;-88
2022/01/31 14:32:36;;;;;;;162.73;149.30;;;5.30;99.90;;;;;;4938897;29;20177;-87
2022/01/31 14:35:06;;;;;;;96.15;68.25;;;5.20;99.90;;;;;;4938719;29;20679;-87
2022/01/31 14:37:34;;;;;;;102.50;81.72;;;5.20;99.90;;;;;;4939063;29;20152;-88
2022/01/31 14:43:19;;;;;;;114.05;87.68;;;5.30;99.90;;;;;;4937449;29;20169;-88
2022/01/31 14:48:52;;;;;;;109.45;83.63;;;5.20;99.90;;;;;;4939483;29;20545;-88
2022/01/31 14:51:30;;;;;;;137.10;123.82;;;5.20;99.90;;;;;;4938874;29;20160;-88
2022/01/31 14:54:09;;;;;;;98.65;80.50;;;5.20;99.90;;;;;;4939753;29;20532;-87
2022/01/31 14:56:39;;;;;;;210.52;194.77;;;5.20;99.90;;;;;;4938118;29;20173;-88
2022/01/31 14:59:06;;;;;;;107.45;90.43;;;5.20;99.90;;;;;;4937836;29;20153;-88
2022/01/31 15:01:38;;;;;;;224.30;207.57;;;5.20;99.90;;;;;;4939204;29;20172;-87
2022/01/31 15:04:15;;;;;;;103.63;90.00;;;5.20;99.90;;;;;;4939182;29;20672;-87
2022/01/31 15:06:46;;;;;;;284.42;263.65;;;5.20;99.90;;;;;;4938907;29;20163;-87
2022/01/31 15:09:12;;;;;;;120.18;85.30;;;5.20;99.90;;;;;;4937510;29;20172;-89
2022/01/31 15:11:44;;;;;;;170.25;155.68;;;5.20;99.90;;;;;;4938652;29;20223;-88
2022/01/31 15:14:11;;;;;;;217.23;200.73;;;5.20;99.90;;;;;;4938276;29;20201;-87
2022/01/31 15:16:48;;;;;;;112.53;100.82;;;5.20;99.90;;;;;;4938601;29;20181;-88
2022/01/31 15:19:18;;;;;;;133.63;120.38;;;5.20;99.90;;;;;;4938940;29;20544;-88
2022/01/31 15:21:44;;;;;;;127.55;113.75;;;5.20;99.90;;;;;;4937178;29;20195;-88
2022/01/31 15:24:14;;;;;;;172.68;156.77;;;5.20;99.90;;;;;;4936918;29;20173;-88
2022/01/31 15:26:40;;;;;;;120.53;108.40;;;5.10;99.90;;;;;;4937840;29;20195;-88
2022/01/31 15:29:12;;;;;;;91.97;70.07;;;5.10;99.90;;;;;;4939058;29;20169;-88
2022/01/31 15:31:44;;;;;;;239.27;221.60;;;5.20;99.90;;;;;;4937370;29;20176;-88
2022/01/31 15:34:33;;;;;;;136.27;123.72;;;5.20;99.90;;;;;;4937825;29;20200;-89
2022/01/31 15:37:05;;;;;;;89.68;51.72;;;5.20;99.90;;;;;;4936691;29;20656;-87
2022/01/31 15:39:49;;;;;;;105.20;89.28;;;5.20;99.90;;;;;;4941462;29;20188;-88
2022/01/31 15:42:15;;;;;;;103.95;88.90;;;5.20;99.90;;;;;;4937935;29;20163;-88
2022/01/31 15:44:55;;;;;;;105.40;78.13;;;5.10;99.90;;;;;;4936835;29;20568;-87
2022/01/31 15:47:24;;;;;;;488.77;454.77;;;5.20;99.90;;;;;;4938221;29;20156;-87
2022/01/31 15:49:53;;;;;;;227.52;209.15;;;5.20;99.90;;;;;;4936522;29;20189;-87
2022/01/31 15:52:22;;;;;;;200.20;184.73;;;5.20;99.90;;;;;;4936658;29;20169;-88
2022/01/31 15:54:56;;;;;;;101.20;75.53;;;5.20;99.90;;;;;;4937749;29;20204;-88
2022/01/31 15:57:35;;;;;;;98.07;69.22;;;5.10;99.90;;;;;;4938051;29;20203;-87
2022/01/31 16:00:01;;;;;;;140.65;127.90;;;5.20;99.90;;;;;;4937446;29;20164;-87
2022/01/31 16:02:27;;;;;;;90.97;57.58;;;5.20;99.90;;;;;;4937940;29;20168;-87
2022/01/31 16:05:03;;;;;;;94.53;60.38;;;5.20;99.90;;;;;;4937524;29;20279;-87
2022/01/31 16:07:29;;;;;;;101.72;77.57;;;5.20;99.90;;;;;;4937702;29;20167;-88
2022/01/31 16:09:54;;;;;;;326.13;304.17;;;5.20;99.90;;;;;;4937399;29;20533;-88
2022/01/31 16:12:23;;;;;;;110.43;84.00;;;5.20;99.90;;;;;;4937744;29;20200;-88
2022/01/31 16:14:49;;;;;;;120.80;108.20;;;5.20;99.90;;;;;;4935810;29;20204;-87
2022/01/31 16:17:25;;;;;;;102.93;91.93;;;5.20;99.90;;;;;;4937203;29;20208;-87
2022/01/31 16:19:56;;;;;;;109.75;76.43;;;5.20;99.90;;;;;;4937132;29;20521;-88
2022/01/31 16:22:22;;;;;;;95.03;66.07;;;5.20;99.90;;;;;;4935722;29;20570;-88
2022/01/31 16:24:51;;;;;;;96.63;59.05;;;5.20;99.90;;;;;;4936440;29;20663;-88
2022/01/31 16:27:30;;;;;;;;;;;;;;;;;;;;;
2022/01/31 16:30:05;;;;;;;107.32;56.90;;;5.30;99.90;;;;;;4937404;29;20159;-88
2022/01/31 16:32:31;;;;;;;98.07;64.50;;;5.30;99.90;;;;;;4937187;29;20161;-88
2022/01/31 16:35:00;;;;;;;156.15;142.05;;;5.30;99.90;;;;;;4935619;29;20299;-88
2022/01/31 16:37:25;;;;;;;88.97;55.42;;;5.30;99.90;;;;;;4937722;29;20192;-88
2022/01/31 16:39:52;;;;;;;91.37;57.53;;;5.30;99.90;;;;;;4936890;29;20506;-88